Muldoon, Idaho
Current Conditions -  °F | °C
As of 6:47 AM on Thursday 23 Oct 2014 (Local Time) from KSUN Reporting Station
Scattered Clouds Scattered Clouds  
Wind Chill: 41°   Ceiling: Unl
Heat Index: 45°   Visibility: 10mi
Dew Point: 37°   Wind: 7mph
Humidity: 76%   Direction: 300°WNW
Pressure: 30.1"   Gusts: NA
Location:  43.1959°N, 113.555°W
Report Text: KSUN 231247Z 30006KT 10SM SCT140 07/03 A3010
Loading
Personal Weather Stations






























Interactive Weather Map
Tropical Storm Tracking
New forecast layout! Learn more

10-Day Weather Forecast

Advertisements
Track Severe Weather on mobile